Terminal Aerodrome Forecast
Issued by NWS

Home | Current Version | Previous Version | Text Only | Print | Product List | Glossary On
Versions: 1 2 3 4 5 6 7 8 9 10 11 12 13 14 15 16 17 18 19 20 21 22 23 24 25 26 27 28 29 30
000
FTUS45 KGJT 241720
TAFCNY
TAF
KCNY 241720Z 2418/2518 19012KT P6SM VCSH SCT090 BKN120
      TEMPO 2419/2422 18012G20KT TSRA SCT080CB BKN120
     FM250200 17008KT P6SM VCTS SCT100CB BKN150
     FM250400 13008KT P6SM SCT150=

USA.gov is the U.S. government's official web portal to all federal, state and local government web resources and services.